RSCU73 YCBG-YCBG
Flight info
| Callsign | RSCU73 |
|---|---|
| Flight time | 0h 1m |
| Altitude | 5500 |
| Route | VFR |
| Aircraft | B412/M-SDE3FGHIRWY/H |
Departure
| Time | 2026-04-14 14:03 |
|---|---|
| Airport | Cambridge Aerodrome (YCBG) |
Arrival
| Time | 2026-04-14 14:04 |
|---|---|
| Airport | Cambridge Aerodrome (YCBG) |
| Time | Latitude | Longitude | Altitude | Speed | Heading |
|---|---|---|---|---|---|
| 2026-04-14 13:58 | -42.82943 | 147.47731 | 38 ft | 0 kts | 321° |
| 2026-04-14 14:01 | -42.82943 | 147.47733 | 44 ft | 1 kts | 308° |
| 2026-04-14 14:02 | -42.82904 | 147.47735 | 59 ft | 12 kts | 359° |
| 2026-04-14 14:02 | -42.82761 | 147.47833 | 98 ft | 45 kts | 335° |
| 2026-04-14 14:02 | -42.82402 | 147.47554 | 193 ft | 70 kts | 321° |
| 2026-04-14 14:02 | -42.82113 | 147.47741 | 422 ft | 62 kts | 109° |
| 2026-04-14 14:03 | -42.82232 | 147.48287 | 688 ft | 59 kts | 114° |
| 2026-04-14 14:03 | -42.82383 | 147.48858 | 880 ft | 79 kts | 112° |
| 2026-04-14 14:03 | -42.82655 | 147.49745 | 698 ft | 115 kts | 114° |
| 2026-04-14 14:03 | -42.82882 | 147.50843 | 582 ft | 123 kts | 101° |
| 2026-04-14 14:04 | -42.83056 | 147.51930 | 631 ft | 113 kts | 105° |
| 2026-04-14 14:04 | -42.83261 | 147.52929 | 675 ft | 108 kts | 109° |
| 2026-04-14 14:04 | -42.83478 | 147.53818 | 736 ft | 79 kts | 112° |
| 2026-04-14 14:04 | -42.83587 | 147.54282 | 648 ft | 37 kts | 113° |
| 2026-04-14 14:05 | -42.83653 | 147.54579 | 434 ft | 26 kts | 110° |
| 2026-04-14 14:05 | -42.83721 | 147.54767 | 439 ft | 17 kts | 111° |
| 2026-04-14 14:05 | -42.83746 | 147.54821 | 371 ft | 3 kts | 112° |
| 2026-04-14 14:05 | -42.83776 | 147.54863 | 235 ft | 8 kts | 113° |
| 2026-04-14 14:06 | -42.83834 | 147.54869 | 189 ft | 4 kts | 94° |
| 2026-04-14 14:06 | -42.83853 | 147.54887 | 142 ft | 1 kts | 60° |
| 2026-04-14 14:06 | -42.83853 | 147.54893 | 139 ft | 4 kts | 61° |
| 2026-04-14 14:06 | -42.83840 | 147.54939 | 122 ft | 6 kts | 61° |
| 2026-04-14 14:07 | -42.83827 | 147.54981 | 126 ft | 18 kts | 61° |
| 2026-04-14 14:07 | -42.83661 | 147.55178 | 266 ft | 66 kts | 343° |
| 2026-04-14 14:07 | -42.83791 | 147.54952 | 321 ft | 70 kts | 127° |
| 2026-04-14 14:07 | -42.83707 | 147.54883 | 317 ft | 54 kts | 230° |
| 2026-04-14 14:08 | -42.83849 | 147.54950 | 270 ft | 16 kts | 69° |
| 2026-04-14 14:08 | -42.83833 | 147.55013 | 126 ft | 1 kts | 58° |
| 2026-04-14 14:08 | -42.83821 | 147.55045 | 164 ft | 19 kts | 21° |
| 2026-04-14 14:08 | -42.83539 | 147.55364 | 219 ft | 74 kts | 344° |
| 2026-04-14 14:09 | -42.83563 | 147.55309 | 202 ft | 26 kts | 359° |
| 2026-04-14 14:09 | -42.83437 | 147.55312 | 49 ft | 5 kts | 307° |
| 2026-04-14 14:09 | -42.83441 | 147.55319 | 106 ft | 1 kts | 307° |
| 2026-04-14 14:09 | -42.83434 | 147.55313 | 111 ft | 1 kts | 310° |
| 2026-04-14 14:10 | -42.83344 | 147.55223 | 248 ft | 44 kts | 305° |
| 2026-04-14 14:10 | -42.83363 | 147.54587 | 351 ft | 86 kts | 231° |
| 2026-04-14 14:10 | -42.83763 | 147.55003 | 348 ft | 104 kts | 78° |
| 2026-04-14 14:10 | -42.83497 | 147.55030 | 395 ft | 59 kts | 252° |
| 2026-04-14 14:11 | -42.83619 | 147.54730 | 460 ft | 14 kts | 244° |
| 2026-04-14 14:11 | -42.83648 | 147.54682 | 128 ft | 6 kts | 245° |
| 2026-04-14 14:11 | -42.83648 | 147.54675 | 153 ft | 2 kts | 245° |
| 2026-04-14 14:11 | -42.83651 | 147.54674 | 151 ft | 8 kts | 245° |
| 2026-04-14 14:12 | -42.83732 | 147.54252 | 239 ft | 74 kts | 255° |
| 2026-04-14 14:12 | -42.83745 | 147.53422 | 319 ft | 93 kts | 277° |
| 2026-04-14 14:12 | -42.83653 | 147.52571 | 537 ft | 92 kts | 278° |
| 2026-04-14 14:12 | -42.83581 | 147.51986 | 595 ft | 99 kts | 278° |
| 2026-04-14 14:13 | -42.83382 | 147.51023 | 537 ft | 113 kts | 303° |
| 2026-04-14 14:13 | -42.82895 | 147.50266 | 707 ft | 90 kts | 310° |
| 2026-04-14 14:13 | -42.82233 | 147.49661 | 603 ft | 89 kts | 342° |
| 2026-04-14 14:13 | -42.81697 | 147.49675 | 683 ft | 70 kts | 358° |
| 2026-04-14 14:14 | -42.81480 | 147.49794 | 734 ft | 52 kts | 108° |
| 2026-04-14 14:14 | -42.81393 | 147.49828 | 109 ft | 57 kts | 109° |
| 2026-04-14 14:14 | -42.81484 | 147.49933 | 22 ft | 24 kts | 258° |
| 2026-04-14 14:14 | -42.81424 | 147.49917 | 13 ft | 0 kts | 87° |
| 2026-04-14 14:15 | -42.81464 | 147.49994 | 68 ft | 15 kts | 259° |
| 2026-04-14 14:15 | -42.81462 | 147.49686 | 109 ft | 70 kts | 263° |
| 2026-04-14 14:15 | -42.81497 | 147.49101 | 430 ft | 75 kts | 233° |
| 2026-04-14 14:15 | -42.81950 | 147.48535 | 492 ft | 86 kts | 164° |
| 2026-04-14 14:16 | -42.82001 | 147.49256 | 299 ft | 116 kts | 30° |
| 2026-04-14 14:16 | -42.81306 | 147.49856 | 115 ft | 120 kts | 5° |
| 2026-04-14 14:16 | -42.80674 | 147.50356 | 244 ft | 91 kts | 0° |
| 2026-04-14 14:17 | -42.79802 | 147.51125 | 530 ft | 55 kts | 263° |
| 2026-04-14 14:17 | -42.79599 | 147.51313 | 673 ft | 23 kts | 28° |
| 2026-04-14 14:17 | -42.79592 | 147.51488 | 594 ft | 19 kts | 28° |
| 2026-04-14 14:17 | -42.79644 | 147.51594 | 520 ft | 9 kts | 28° |
| 2026-04-14 14:18 | -42.79671 | 147.51646 | 354 ft | 4 kts | 28° |
| 2026-04-14 14:18 | -42.79440 | 147.51844 | 251 ft | 54 kts | 17° |
| 2026-04-14 14:18 | -42.79318 | 147.51946 | 23 ft | 8 kts | 355° |
| 2026-04-14 14:18 | -42.79242 | 147.51990 | 68 ft | 13 kts | 258° |
| 2026-04-14 14:19 | -42.79175 | 147.51934 | 81 ft | 9 kts | 238° |
| 2026-04-14 14:19 | -42.79138 | 147.51895 | 71 ft | 5 kts | 217° |
| 2026-04-14 14:19 | -42.79124 | 147.51867 | 66 ft | 3 kts | 213° |
| 2026-04-14 14:19 | -42.79116 | 147.51851 | 57 ft | 2 kts | 213° |
| 2026-04-14 14:20 | -42.79110 | 147.51838 | 44 ft | 1 kts | 213° |
| 2026-04-14 14:20 | -42.79113 | 147.51838 | 54 ft | 4 kts | 213° |
| 2026-04-14 14:20 | -42.79248 | 147.51825 | 197 ft | 38 kts | 209° |
| 2026-04-14 14:20 | -42.79638 | 147.51829 | 309 ft | 77 kts | 187° |
| 2026-04-14 14:21 | -42.80247 | 147.51716 | 331 ft | 99 kts | 195° |
| 2026-04-14 14:21 | -42.80938 | 147.51487 | 312 ft | 105 kts | 200° |
| 2026-04-14 14:21 | -42.81597 | 147.51275 | 449 ft | 95 kts | 198° |
| 2026-04-14 14:21 | -42.82195 | 147.50958 | 474 ft | 91 kts | 214° |
| 2026-04-14 14:22 | -42.82718 | 147.50503 | 513 ft | 90 kts | 220° |
| 2026-04-14 14:22 | -42.83065 | 147.49816 | 485 ft | 90 kts | 257° |
| 2026-04-14 14:22 | -42.83152 | 147.49099 | 403 ft | 62 kts | 273° |
| 2026-04-14 14:22 | -42.83072 | 147.48623 | 290 ft | 46 kts | 291° |
| 2026-04-14 14:23 | -42.82915 | 147.48273 | 173 ft | 45 kts | 302° |
| 2026-04-14 14:23 | -42.82771 | 147.47997 | 93 ft | 26 kts | 284° |
| 2026-04-14 14:23 | -42.82828 | 147.47837 | 65 ft | 17 kts | 244° |
| 2026-04-14 14:23 | -42.82905 | 147.47760 | 54 ft | 8 kts | 232° |
| 2026-04-14 14:24 | -42.82929 | 147.47647 | 57 ft | 11 kts | 212° |
| 2026-04-14 14:24 | -42.82943 | 147.47640 | 37 ft | 1 kts | 192° |
| 2026-04-14 14:27 | -42.82944 | 147.47640 | 36 ft | 0 kts | 210° |
| 2026-04-14 14:28 | -42.82943 | 147.47640 | 36 ft | 0 kts | 190° |
| 2026-04-14 14:36 | -42.82951 | 147.47632 | 60 ft | 6 kts | 140° |
| 2026-04-14 14:37 | -42.82993 | 147.47689 | 39 ft | 6 kts | 257° |
| 2026-04-14 14:37 | -42.82993 | 147.47688 | 39 ft | 0 kts | 270° |
| 2026-04-14 14:37 | -42.82943 | 147.47731 | 39 ft | 0 kts | 321° |